createdAt,value
2023-04-09T00:01:15.499Z,99940.76
2023-04-09T00:03:43.369Z,99938.36
2023-04-09T00:06:11.751Z,99936.95
2023-04-09T00:08:39.626Z,99939.24
2023-04-09T00:11:07.536Z,99938.91
2023-04-09T00:13:39.555Z,99935.77
2023-04-09T00:16:08.697Z,99934.71
2023-04-09T00:18:36.925Z,99938.34
2023-04-09T00:21:05.092Z,99940.06
2023-04-09T00:23:32.907Z,99934.99
2023-04-09T00:26:01.368Z,99936.44
2023-04-09T00:28:29.208Z,99936.82
2023-04-09T00:30:57.283Z,99934.75
2023-04-09T00:33:25.748Z,99933.00
2023-04-09T00:35:54.172Z,99934.38
2023-04-09T00:38:22.068Z,99931.61
2023-04-09T00:40:50.802Z,99934.79
2023-04-09T00:43:18.720Z,99933.57
2023-04-09T00:45:47.499Z,99936.91
2023-04-09T00:48:17.126Z,99933.95
2023-04-09T00:50:45.031Z,99931.35
2023-04-09T00:53:13.071Z,99931.51
2023-04-09T00:55:41.482Z,99931.70
2023-04-09T00:58:09.453Z,99926.48
2023-04-09T01:00:37.543Z,99927.89
2023-04-09T01:03:07.059Z,99929.48
2023-04-09T01:05:51.095Z,99926.95
2023-04-09T01:08:54.608Z,99927.47
2023-04-09T01:11:31.458Z,99928.69
2023-04-09T01:14:03.611Z,99923.28
2023-04-09T01:16:37.040Z,99920.01
2023-04-09T01:19:29.531Z,99922.28
2023-04-09T01:21:58.517Z,99925.94
2023-04-09T01:24:47.559Z,99937.27
2023-04-09T01:27:25.179Z,99943.77
2023-04-09T01:29:58.741Z,99940.85
2023-04-09T01:32:26.978Z,99943.30
2023-04-09T01:34:55.930Z,99946.61
2023-04-09T01:37:24.840Z,99945.56
2023-04-09T01:39:52.915Z,99947.86
2023-04-09T01:42:21.330Z,99944.55
2023-04-09T01:44:49.498Z,99942.47
2023-04-09T01:47:17.449Z,99942.27
2023-04-09T01:49:45.873Z,99944.83
2023-04-09T01:52:14.664Z,99950.91
2023-04-09T01:54:43.021Z,99955.41
2023-04-09T01:57:11.028Z,99954.59
2023-04-09T01:59:38.881Z,99957.95
2023-04-09T02:02:12.371Z,99955.73
2023-04-09T02:04:48.276Z,99944.58
2023-04-09T02:07:38.476Z,99944.61
2023-04-09T02:10:08.625Z,99945.00
2023-04-09T02:12:40.594Z,99947.75
2023-04-09T02:15:09.449Z,99952.95
2023-04-09T02:17:37.360Z,99952.27
2023-04-09T02:20:06.061Z,99951.42
2023-04-09T02:22:33.900Z,99958.21
2023-04-09T02:25:01.814Z,99956.98
2023-04-09T02:27:29.738Z,99957.86
2023-04-09T02:29:57.663Z,99957.70
2023-04-09T02:32:25.603Z,99962.31
2023-04-09T02:34:53.416Z,99971.26
2023-04-09T02:37:21.381Z,99975.33
2023-04-09T02:39:49.355Z,99975.49
2023-04-09T02:42:17.221Z,99983.52
2023-04-09T02:44:45.178Z,99982.98
2023-04-09T02:47:14.114Z,99981.92
2023-04-09T02:49:42.125Z,99979.73
2023-04-09T02:52:11.330Z,99974.45
2023-04-09T02:54:39.342Z,99969.80
2023-04-09T02:57:07.389Z,99971.45
2023-04-09T02:59:35.914Z,99977.06
2023-04-09T03:02:05.065Z,99977.08
2023-04-09T03:04:33.158Z,99978.32
2023-04-09T03:07:00.971Z,99977.00
2023-04-09T03:09:30.344Z,99978.75
2023-04-09T03:11:58.241Z,99977.34
2023-04-09T03:14:26.110Z,99976.00
2023-04-09T03:16:53.937Z,99981.28
2023-04-09T03:19:22.009Z,99981.00
2023-04-09T03:21:51.345Z,99981.05
2023-04-09T03:24:20.477Z,99981.63
2023-04-09T03:26:49.118Z,99986.73
2023-04-09T03:29:17.159Z,99984.79
2023-04-09T03:31:45.336Z,99981.80
2023-04-09T03:34:13.306Z,99981.05
2023-04-09T03:36:41.266Z,99977.71
2023-04-09T03:39:14.593Z,99978.24
2023-04-09T03:41:44.475Z,99977.37
2023-04-09T03:44:15.379Z,99977.84
2023-04-09T03:46:56.068Z,99977.05
2023-04-09T03:49:24.469Z,99973.92
2023-04-09T03:51:53.058Z,99971.36
2023-04-09T03:54:21.223Z,99974.34
2023-04-09T03:56:49.380Z,99972.14
2023-04-09T03:59:17.468Z,99968.13
2023-04-09T04:01:48.140Z,99962.30
2023-04-09T04:04:18.869Z,99960.41
2023-04-09T04:06:52.728Z,99964.96
2023-04-09T04:09:30.988Z,99964.67
2023-04-09T04:12:08.514Z,99971.49
2023-04-09T04:15:02.766Z,99966.39
2023-04-09T04:17:37.982Z,99965.50
2023-04-09T04:20:10.447Z,99967.25
2023-04-09T04:22:44.554Z,99967.02
2023-04-09T04:25:12.768Z,99967.83
2023-04-09T04:27:43.968Z,99966.19
2023-04-09T04:30:12.307Z,99971.26
2023-04-09T04:32:51.003Z,99978.02
2023-04-09T04:35:19.120Z,99974.83
2023-04-09T04:37:50.050Z,99974.42
2023-04-09T04:40:18.769Z,99978.91
2023-04-09T04:42:47.205Z,99979.34
2023-04-09T04:45:16.331Z,99985.99
2023-04-09T04:47:48.814Z,99993.32
2023-04-09T04:50:16.932Z,99992.48
2023-04-09T04:52:53.989Z,99989.27
2023-04-09T04:55:22.559Z,99991.03
2023-04-09T04:57:52.560Z,99989.37
2023-04-09T05:00:22.176Z,99989.78
2023-04-09T05:02:50.150Z,99993.34
2023-04-09T05:05:31.036Z,99994.48
2023-04-09T05:07:59.004Z,99992.13
2023-04-09T05:10:26.828Z,99991.89
2023-04-09T05:12:54.758Z,99989.42
2023-04-09T05:15:28.709Z,99990.51
2023-04-09T05:17:56.942Z,99987.73
2023-04-09T05:20:27.229Z,99986.45
2023-04-09T05:23:03.953Z,99987.82
2023-04-09T05:25:35.626Z,99987.25
2023-04-09T05:28:03.888Z,99984.69
2023-04-09T05:30:32.075Z,99985.14
2023-04-09T05:33:01.489Z,99983.92
2023-04-09T05:35:29.385Z,99985.27
2023-04-09T05:37:57.576Z,99985.72
2023-04-09T05:40:25.622Z,99985.37
2023-04-09T05:42:53.971Z,99986.91
2023-04-09T05:45:34.812Z,99988.78
2023-04-09T05:48:02.998Z,99988.19
2023-04-09T05:50:31.898Z,99993.20
2023-04-09T05:53:05.093Z,99995.94
2023-04-09T05:55:38.775Z,99998.87
2023-04-09T05:58:07.244Z,99995.84
2023-04-09T06:00:35.420Z,99998.53
2023-04-09T06:03:04.748Z,100003.30
2023-04-09T06:05:32.786Z,100006.62
2023-04-09T06:08:00.860Z,100004.85
2023-04-09T06:10:28.679Z,100006.77
2023-04-09T06:12:56.532Z,100011.94
2023-04-09T06:15:24.476Z,100009.55
2023-04-09T06:17:52.302Z,100011.85
2023-04-09T06:20:20.309Z,100013.10
2023-04-09T06:22:48.237Z,100011.42
2023-04-09T06:25:16.128Z,100008.77
2023-04-09T06:27:44.116Z,100006.58
2023-04-09T06:30:12.341Z,100001.19
2023-04-09T06:32:53.047Z,100003.15
2023-04-09T06:35:21.553Z,99996.50
2023-04-09T06:37:49.404Z,99995.55
2023-04-09T06:40:17.382Z,100002.30
2023-04-09T06:42:45.522Z,100000.60
2023-04-09T06:45:21.342Z,100002.36
2023-04-09T06:47:49.401Z,100005.38
2023-04-09T06:50:17.267Z,100007.23
2023-04-09T06:52:45.140Z,100004.95
2023-04-09T06:55:13.088Z,100008.17
2023-04-09T06:57:41.577Z,100008.78
2023-04-09T07:00:10.467Z,100013.91
2023-04-09T07:02:38.742Z,100009.27
2023-04-09T07:05:06.946Z,100009.55
2023-04-09T07:07:34.908Z,100009.20
2023-04-09T07:10:02.727Z,100009.98
2023-04-09T07:12:32.430Z,100010.15
2023-04-09T07:15:01.957Z,100010.41
2023-04-09T07:17:31.610Z,100013.02
2023-04-09T07:19:59.579Z,100013.98
2023-04-09T07:22:29.197Z,100011.61
2023-04-09T07:24:57.371Z,100010.77
2023-04-09T07:27:28.674Z,100013.60
2023-04-09T07:29:57.945Z,100014.77
2023-04-09T07:32:28.168Z,100014.77
2023-04-09T07:34:57.372Z,100013.96
2023-04-09T07:37:26.096Z,100012.80
2023-04-09T07:39:54.104Z,100010.42
2023-04-09T07:42:22.290Z,100010.30
2023-04-09T07:44:50.435Z,100011.81
2023-04-09T07:47:18.396Z,100010.92
2023-04-09T07:49:47.055Z,100012.34
2023-04-09T07:52:15.018Z,100012.54
2023-04-09T07:54:43.032Z,100010.80
2023-04-09T07:57:11.026Z,100014.01
2023-04-09T07:59:39.046Z,100014.95
2023-04-09T08:02:07.695Z,100009.52
2023-04-09T08:04:35.889Z,100006.83
2023-04-09T08:07:03.993Z,100005.02
2023-04-09T08:09:31.852Z,100002.59
2023-04-09T08:11:59.879Z,99999.27
2023-04-09T08:14:27.821Z,100001.69
2023-04-09T08:16:56.426Z,100003.82
2023-04-09T08:19:24.857Z,100003.29
2023-04-09T08:21:52.912Z,100000.08
2023-04-09T08:24:21.450Z,100000.30
2023-04-09T08:26:49.416Z,99997.34
2023-04-09T08:29:17.287Z,99995.42
2023-04-09T08:31:45.542Z,99995.55
2023-04-09T08:34:15.230Z,100002.16
2023-04-09T08:36:46.530Z,100005.81
2023-04-09T08:39:16.032Z,100009.06
2023-04-09T08:41:45.538Z,100006.09
2023-04-09T08:44:13.583Z,100006.39
2023-04-09T08:46:41.989Z,100010.83
2023-04-09T08:49:11.025Z,100012.29
2023-04-09T08:51:39.427Z,100016.73
2023-04-09T08:54:07.662Z,100017.21
2023-04-09T08:56:35.820Z,100018.20
2023-04-09T08:59:03.743Z,100022.77
2023-04-09T09:01:32.663Z,100025.25
2023-04-09T09:04:01.826Z,100030.23
2023-04-09T09:06:33.230Z,100032.73
2023-04-09T09:09:12.547Z,100029.95
2023-04-09T09:11:42.786Z,100032.98
2023-04-09T09:14:12.924Z,100038.23
2023-04-09T09:16:43.482Z,100041.84
2023-04-09T09:19:26.599Z,100040.08
2023-04-09T09:21:59.722Z,100033.83
2023-04-09T09:24:27.975Z,100031.65
2023-04-09T09:26:57.337Z,100022.93
2023-04-09T09:29:25.994Z,100016.02
2023-04-09T09:31:55.178Z,100015.49
2023-04-09T09:34:24.626Z,100023.82
2023-04-09T09:36:52.594Z,100023.42
2023-04-09T09:39:22.175Z,100019.91
2023-04-09T09:42:07.829Z,100023.45
2023-04-09T09:44:35.845Z,100020.76
2023-04-09T09:47:04.130Z,100021.85
2023-04-09T09:49:32.146Z,100019.33
2023-04-09T09:52:03.165Z,100014.01
2023-04-09T09:54:39.983Z,100011.18
2023-04-09T09:57:10.340Z,100005.21
2023-04-09T09:59:43.562Z,99997.92
2023-04-09T10:02:25.353Z,99995.39
2023-04-09T10:04:53.671Z,99998.28
2023-04-09T10:07:22.531Z,100001.70
2023-04-09T10:09:53.025Z,100003.06
2023-04-09T10:12:25.333Z,100000.73
2023-04-09T10:14:55.969Z,100002.21
2023-04-09T10:17:23.941Z,99999.09
2023-04-09T10:20:05.427Z,100000.42
2023-04-09T10:22:34.900Z,100000.89
2023-04-09T10:25:04.632Z,99998.13
2023-04-09T10:27:32.691Z,99998.95
2023-04-09T10:30:01.795Z,99999.69
2023-04-09T10:32:36.302Z,99999.59
2023-04-09T10:35:04.713Z,100005.73
2023-04-09T10:37:35.576Z,100001.46
2023-04-09T10:40:04.717Z,100005.66
2023-04-09T10:42:37.231Z,100004.80
2023-04-09T10:45:09.399Z,100000.82
2023-04-09T10:47:42.738Z,99995.04
2023-04-09T10:50:27.973Z,99994.36
2023-04-09T10:52:58.250Z,99994.64
2023-04-09T10:55:38.273Z,99995.50
2023-04-09T10:58:12.368Z,99994.48
2023-04-09T11:00:44.224Z,99992.08
2023-04-09T11:03:32.322Z,99992.00
2023-04-09T11:06:09.428Z,99991.42
2023-04-09T11:08:38.621Z,99989.21
2023-04-09T11:11:06.607Z,99996.02
2023-04-09T11:13:34.709Z,99998.86
2023-04-09T11:16:06.861Z,99996.79
2023-04-09T11:18:37.078Z,99990.27
2023-04-09T11:21:05.230Z,99991.15
2023-04-09T11:23:33.522Z,99996.20
2023-04-09T11:26:02.369Z,99996.79
2023-04-09T11:28:30.309Z,99996.55
2023-04-09T11:30:58.176Z,99994.92
2023-04-09T11:33:33.266Z,99992.28
2023-04-09T11:36:04.523Z,99989.38
2023-04-09T11:38:32.552Z,99989.23
2023-04-09T11:41:02.163Z,99987.45
2023-04-09T11:43:30.238Z,99984.61
2023-04-09T11:45:59.156Z,99985.23
2023-04-09T11:48:27.195Z,99982.84
2023-04-09T11:50:55.232Z,99981.34
2023-04-09T11:53:23.893Z,99985.42
2023-04-09T11:55:53.160Z,99984.54
2023-04-09T11:58:26.315Z,99983.11
2023-04-09T12:00:56.197Z,99985.30
2023-04-09T12:03:34.283Z,99984.45
2023-04-09T12:06:04.089Z,99987.55
2023-04-09T12:08:35.132Z,99988.38
2023-04-09T12:11:10.678Z,99982.90
2023-04-09T12:13:43.235Z,99986.95
2023-04-09T12:16:12.935Z,99984.86
2023-04-09T12:18:41.243Z,99981.31
2023-04-09T12:21:09.130Z,99983.34
2023-04-09T12:23:37.056Z,99991.42
2023-04-09T12:26:05.017Z,99995.73
2023-04-09T12:28:32.858Z,99992.38
2023-04-09T12:31:00.789Z,99997.64
2023-04-09T12:33:28.614Z,99995.59
2023-04-09T12:35:58.401Z,99995.09
2023-04-09T12:38:26.897Z,99995.94
2023-04-09T12:40:54.865Z,99993.62
2023-04-09T12:43:22.822Z,99990.65
2023-04-09T12:45:51.557Z,99987.36
2023-04-09T12:48:19.372Z,99987.04
2023-04-09T12:50:47.184Z,99984.20
2023-04-09T12:53:15.386Z,99981.62
2023-04-09T12:55:43.221Z,99981.77
2023-04-09T12:58:11.148Z,99979.30
2023-04-09T13:00:38.961Z,99976.38
2023-04-09T13:03:07.084Z,99976.90
2023-04-09T13:05:37.649Z,99982.25
2023-04-09T13:08:05.477Z,99986.27
2023-04-09T13:10:33.467Z,99981.00
2023-04-09T13:13:01.475Z,99977.10
2023-04-09T13:15:29.382Z,99981.79
2023-04-09T13:17:57.562Z,99985.46
2023-04-09T13:20:25.586Z,99985.15
2023-04-09T13:22:53.420Z,99988.00
2023-04-09T13:25:21.377Z,99981.79
2023-04-09T13:27:49.230Z,99981.96
2023-04-09T13:30:17.125Z,99987.17
2023-04-09T13:32:45.096Z,99987.71
2023-04-09T13:35:13.029Z,99985.27
2023-04-09T13:37:41.035Z,99985.83
2023-04-09T13:40:09.345Z,99990.11
2023-04-09T13:42:39.859Z,99990.33
2023-04-09T13:45:07.930Z,99988.75
2023-04-09T13:47:35.921Z,99990.93
2023-04-09T13:50:04.230Z,99989.34
2023-04-09T13:52:32.774Z,99988.34
2023-04-09T13:55:00.738Z,99992.64
2023-04-09T13:57:28.641Z,99991.20
2023-04-09T13:59:56.538Z,99984.40
2023-04-09T14:02:24.669Z,99985.09
2023-04-09T14:04:52.748Z,99984.63
2023-04-09T14:07:20.633Z,99983.22
2023-04-09T14:09:50.762Z,99976.58
2023-04-09T14:12:19.066Z,99975.38
2023-04-09T14:14:47.107Z,99975.77
2023-04-09T14:17:15.028Z,99972.19
2023-04-09T14:19:42.841Z,99969.90
2023-04-09T14:22:11.585Z,99966.35
2023-04-09T14:24:42.386Z,99965.99
2023-04-09T14:27:10.244Z,99965.11
2023-04-09T14:29:38.073Z,99961.30
2023-04-09T14:32:06.429Z,99958.84
2023-04-09T14:34:34.454Z,99955.75
2023-04-09T14:37:02.727Z,99955.08
2023-04-09T14:39:30.800Z,99953.20
2023-04-09T14:41:58.648Z,99950.64
2023-04-09T14:44:26.956Z,99952.27
2023-04-09T14:46:55.191Z,99953.02
2023-04-09T14:49:23.560Z,99954.92
2023-04-09T14:51:52.001Z,99957.05
2023-04-09T14:54:19.871Z,99956.97
2023-04-09T14:56:47.769Z,99955.88
2023-04-09T14:59:15.639Z,99956.91
2023-04-09T15:01:43.756Z,99957.17
2023-04-09T15:04:11.813Z,99954.43
2023-04-09T15:06:39.831Z,99956.42
2023-04-09T15:09:07.700Z,99955.52
2023-04-09T15:11:35.542Z,99951.79
2023-04-09T15:14:03.466Z,99953.87
2023-04-09T15:16:33.393Z,99955.68
2023-04-09T15:19:02.685Z,99956.05
2023-04-09T15:21:31.742Z,99955.86
2023-04-09T15:24:00.307Z,99956.77
2023-04-09T15:26:28.264Z,99959.75
2023-04-09T15:29:04.001Z,99963.99
2023-04-09T15:31:32.705Z,99961.90
2023-04-09T15:34:00.991Z,99960.51
2023-04-09T15:36:30.100Z,99960.39
2023-04-09T15:38:58.124Z,99958.66
2023-04-09T15:41:26.903Z,99960.31
2023-04-09T15:43:54.753Z,99958.27
2023-04-09T15:46:22.723Z,99956.75
2023-04-09T15:48:50.914Z,99958.91
2023-04-09T15:51:18.890Z,99959.46
2023-04-09T15:53:46.735Z,99959.91
2023-04-09T15:56:15.430Z,99953.72
2023-04-09T15:58:43.548Z,99951.04
2023-04-09T16:01:11.549Z,99950.89
2023-04-09T16:03:41.029Z,99956.98
2023-04-09T16:06:13.330Z,99959.09
2023-04-09T16:08:41.357Z,99959.80
2023-04-09T16:11:09.572Z,99957.85
2023-04-09T16:13:37.449Z,99961.77
2023-04-09T16:16:06.986Z,99960.12
2023-04-09T16:18:35.234Z,99959.86
2023-04-09T16:21:03.208Z,99959.17
2023-04-09T16:23:32.664Z,99960.13
2023-04-09T16:26:00.558Z,99962.98
2023-04-09T16:28:28.391Z,99960.27
2023-04-09T16:30:56.248Z,99963.30
2023-04-09T16:33:24.195Z,99963.42
2023-04-09T16:35:52.059Z,99960.23
2023-04-09T16:38:20.027Z,99955.30
2023-04-09T16:40:48.087Z,99958.05
2023-04-09T16:43:16.161Z,99956.95
2023-04-09T16:45:44.266Z,99957.99
2023-04-09T16:48:12.899Z,99956.68
2023-04-09T16:50:41.188Z,99955.46
2023-04-09T16:53:09.830Z,99954.90
2023-04-09T16:55:38.023Z,99959.77
2023-04-09T16:58:06.248Z,99959.91
2023-04-09T17:00:35.385Z,99959.48
2023-04-09T17:03:03.819Z,99955.63
2023-04-09T17:05:32.267Z,99959.78
2023-04-09T17:08:00.572Z,99961.96
2023-04-09T17:10:28.734Z,99965.87
2023-04-09T17:12:57.020Z,99961.58
2023-04-09T17:15:25.875Z,99963.23
2023-04-09T17:17:54.019Z,99966.43
2023-04-09T17:20:22.736Z,99968.27
2023-04-09T17:22:50.881Z,99966.34
2023-04-09T17:25:20.442Z,99967.69
2023-04-09T17:27:48.306Z,99969.20
2023-04-09T17:30:16.284Z,99966.48
2023-04-09T17:32:44.331Z,99968.36
2023-04-09T17:35:12.281Z,99968.83
2023-04-09T17:37:40.146Z,99971.40
2023-04-09T17:40:09.012Z,99975.30
2023-04-09T17:42:37.147Z,99974.28
2023-04-09T17:45:05.688Z,99979.35
2023-04-09T17:47:33.657Z,99975.55
2023-04-09T17:50:01.804Z,99977.52
2023-04-09T17:52:36.512Z,99980.55
2023-04-09T17:55:08.681Z,99981.99
2023-04-09T17:57:36.662Z,99977.44
2023-04-09T18:00:05.417Z,99978.00
2023-04-09T18:02:34.717Z,99979.81
2023-04-09T18:05:04.827Z,99983.71
2023-04-09T18:07:36.013Z,99983.40
2023-04-09T18:10:04.327Z,99982.71
2023-04-09T18:12:32.628Z,99983.63
2023-04-09T18:15:00.806Z,99985.59
2023-04-09T18:17:29.016Z,99987.01
2023-04-09T18:20:00.073Z,99990.52
2023-04-09T18:22:28.274Z,99993.85
2023-04-09T18:24:56.548Z,99994.23
2023-04-09T18:27:24.529Z,99994.58
2023-04-09T18:29:52.906Z,99995.63
2023-04-09T18:32:21.765Z,99995.64
2023-04-09T18:34:50.818Z,99997.23
2023-04-09T18:37:19.587Z,100001.87
2023-04-09T18:39:48.110Z,100003.48
2023-04-09T18:42:16.036Z,100009.63
2023-04-09T18:44:45.663Z,100009.81
2023-04-09T18:47:13.614Z,100009.35
2023-04-09T18:49:41.463Z,100012.02
2023-04-09T18:52:10.280Z,100013.82
2023-04-09T18:54:38.935Z,100012.77
2023-04-09T18:57:07.473Z,100015.56
2023-04-09T18:59:35.987Z,100019.42
2023-04-09T19:02:05.028Z,100020.98
2023-04-09T19:04:39.785Z,100020.91
2023-04-09T19:07:08.264Z,100018.73
2023-04-09T19:09:37.447Z,100016.92
2023-04-09T19:12:05.844Z,100018.65
2023-04-09T19:14:36.446Z,100016.77
2023-04-09T19:17:04.316Z,100014.88
2023-04-09T19:19:33.218Z,100014.73
2023-04-09T19:22:01.754Z,100015.07
2023-04-09T19:24:29.711Z,100018.40
2023-04-09T19:26:57.927Z,100022.48
2023-04-09T19:29:26.069Z,100020.09
2023-04-09T19:31:54.244Z,100022.58
2023-04-09T19:34:22.438Z,100025.77
2023-04-09T19:36:50.287Z,100025.95
2023-04-09T19:39:18.862Z,100027.88
2023-04-09T19:41:46.922Z,100028.09
2023-04-09T19:44:15.368Z,100029.01
2023-04-09T19:46:43.568Z,100028.98
2023-04-09T19:49:11.452Z,100030.70
2023-04-09T19:51:39.308Z,100025.80
2023-04-09T19:54:09.668Z,100027.55
2023-04-09T19:56:38.283Z,100027.73
2023-04-09T19:59:06.571Z,100030.07
2023-04-09T20:01:34.859Z,100028.02
2023-04-09T20:04:02.981Z,100032.41
2023-04-09T20:06:30.902Z,100032.77
2023-04-09T20:08:59.374Z,100030.14
2023-04-09T20:11:27.261Z,100028.74
2023-04-09T20:13:55.129Z,100032.96
2023-04-09T20:16:22.969Z,100030.20
2023-04-09T20:18:51.122Z,100031.75
2023-04-09T20:21:19.053Z,100029.96
2023-04-09T20:23:47.167Z,100032.27
2023-04-09T20:26:15.080Z,100033.15
2023-04-09T20:28:42.995Z,100033.35
2023-04-09T20:31:10.979Z,100034.39
2023-04-09T20:33:38.889Z,100034.41
2023-04-09T20:36:15.236Z,100033.20
2023-04-09T20:38:43.402Z,100032.16
2023-04-09T20:41:11.341Z,100032.16
2023-04-09T20:43:39.342Z,100030.42
2023-04-09T20:46:07.327Z,100029.76
2023-04-09T20:48:35.406Z,100025.51
2023-04-09T20:51:09.709Z,100024.42
2023-04-09T20:53:38.526Z,100025.27
2023-04-09T20:56:07.325Z,100026.47
2023-04-09T20:58:35.701Z,100025.04
2023-04-09T21:01:09.577Z,100026.08
2023-04-09T21:03:39.059Z,100027.98
2023-04-09T21:06:08.321Z,100023.75
2023-04-09T21:08:37.284Z,100026.51
2023-04-09T21:11:05.487Z,100027.37
2023-04-09T21:13:40.493Z,100028.28
2023-04-09T21:16:18.879Z,100027.24
2023-04-09T21:18:46.798Z,100029.67
2023-04-09T21:21:14.808Z,100026.13
2023-04-09T21:23:42.648Z,100025.73
2023-04-09T21:26:11.494Z,100031.10
2023-04-09T21:28:39.400Z,100031.06
2023-04-09T21:31:07.424Z,100026.66
2023-04-09T21:33:35.486Z,100026.10
2023-04-09T21:36:04.593Z,100027.50
2023-04-09T21:38:32.446Z,100032.73
2023-04-09T21:41:01.895Z,100030.57
2023-04-09T21:43:31.930Z,100030.23
2023-04-09T21:45:59.816Z,100029.09
2023-04-09T21:48:29.061Z,100031.23
2023-04-09T21:51:00.023Z,100028.30
2023-04-09T21:53:28.240Z,100028.33
2023-04-09T21:55:56.363Z,100028.02
2023-04-09T21:58:24.216Z,100028.36
2023-04-09T22:00:52.217Z,100026.38
2023-04-09T22:03:20.413Z,100025.68
2023-04-09T22:05:48.559Z,100026.23
2023-04-09T22:08:16.415Z,100027.77
2023-04-09T22:10:44.374Z,100028.05
2023-04-09T22:13:12.289Z,100022.60
2023-04-09T22:15:41.732Z,100022.96
2023-04-09T22:18:09.693Z,100026.27
2023-04-09T22:20:37.596Z,100025.36
2023-04-09T22:23:05.718Z,100025.54
2023-04-09T22:25:35.099Z,100023.77
2023-04-09T22:28:05.698Z,100021.96
2023-04-09T22:30:33.551Z,100024.40
2023-04-09T22:33:02.334Z,100023.32
2023-04-09T22:35:30.552Z,100022.96
2023-04-09T22:37:59.439Z,100025.21
2023-04-09T22:40:27.275Z,100026.09
2023-04-09T22:42:55.129Z,100029.25
2023-04-09T22:45:22.961Z,100026.27
2023-04-09T22:47:50.855Z,100022.75
2023-04-09T22:50:18.790Z,100024.30
2023-04-09T22:52:46.748Z,100024.48
2023-04-09T22:55:14.592Z,100022.92
2023-04-09T22:57:43.067Z,100023.46
2023-04-09T23:00:11.537Z,100021.89
2023-04-09T23:02:39.602Z,100022.95
2023-04-09T23:05:08.398Z,100023.66
2023-04-09T23:07:36.307Z,100021.77
2023-04-09T23:10:04.467Z,100026.34
2023-04-09T23:12:32.353Z,100025.48
2023-04-09T23:15:00.322Z,100029.02
2023-04-09T23:17:28.164Z,100032.33
2023-04-09T23:19:56.120Z,100033.17
2023-04-09T23:22:24.371Z,100032.55
2023-04-09T23:24:52.230Z,100030.06
2023-04-09T23:27:20.270Z,100029.20
2023-04-09T23:29:48.137Z,100028.29
2023-04-09T23:32:16.246Z,100026.48
2023-04-09T23:34:44.110Z,100019.75
2023-04-09T23:37:12.020Z,100020.00
2023-04-09T23:39:39.843Z,100017.83
2023-04-09T23:42:07.754Z,100014.48
2023-04-09T23:44:35.621Z,100011.91
2023-04-09T23:47:05.902Z,100006.39
2023-04-09T23:49:33.949Z,100003.80
2023-04-09T23:52:02.015Z,100002.46
2023-04-09T23:54:30.753Z,100006.20
2023-04-09T23:56:59.697Z,100006.23
2023-04-09T23:59:27.628Z,100003.58
